< < Back
Terminal Aerodrome Forecast


Current Version              Previous Versions:   1  2  3  4  5  6  7  8  9  

Terminal Aerodrome Forecast

136
FTUS42 KFFC 232058 AAC
TAFCSG
TAF AMD
KCSG 232058Z 2321/2418 25010G18KT 5SM -SHRA BR SCT006 BKN035
      TEMPO 2321/2322 VRB15G30KT 3SM TSRA BR OVC008CB
     FM240200 19009KT 4SM BR OVC007
     FM241500 24010KT P6SM SCT020=

Latest METAR

299
SAUS70 KWBC 240400
MTRCSG
METAR KCSG 240351Z 21006KT 10SM OVC017 17/15 A2977 RMK AO2 SLP079
T01670150


USA.gov is the U.S. government's official web portal to all federal, state and local government web resources and services.